sensor_id;sensor_type;location;lat;lon;timestamp;P1;durP1;ratioP1;P2;durP2;ratioP2
19889;SDS011;10107;51.198;6.824;2023-04-03T00:00:20;9.13;;;6.30;;
19889;SDS011;10107;51.198;6.824;2023-04-03T00:04:23;10.88;;;6.93;;
19889;SDS011;10107;51.198;6.824;2023-04-03T00:08:24;11.18;;;7.53;;
19889;SDS011;10107;51.198;6.824;2023-04-03T00:12:26;9.48;;;6.55;;
19889;SDS011;10107;51.198;6.824;2023-04-03T00:16:28;8.73;;;6.50;;
19889;SDS011;10107;51.198;6.824;2023-04-03T00:20:31;9.02;;;6.40;;
19889;SDS011;10107;51.198;6.824;2023-04-03T00:28:34;11.38;;;6.47;;
19889;SDS011;10107;51.198;6.824;2023-04-03T00:32:36;7.07;;;6.15;;
19889;SDS011;10107;51.198;6.824;2023-04-03T00:36:39;8.00;;;6.28;;
19889;SDS011;10107;51.198;6.824;2023-04-03T00:40:42;7.53;;;5.57;;
19889;SDS011;10107;51.198;6.824;2023-04-03T00:49:29;8.63;;;6.18;;
19889;SDS011;10107;51.198;6.824;2023-04-03T00:53:33;8.00;;;5.90;;
19889;SDS011;10107;51.198;6.824;2023-04-03T00:57:37;8.25;;;5.60;;
19889;SDS011;10107;51.198;6.824;2023-04-03T01:01:40;6.85;;;5.05;;
19889;SDS011;10107;51.198;6.824;2023-04-03T01:05:43;8.35;;;6.30;;
19889;SDS011;10107;51.198;6.824;2023-04-03T01:09:46;8.68;;;5.78;;
19889;SDS011;10107;51.198;6.824;2023-04-03T01:13:50;7.80;;;5.80;;
19889;SDS011;10107;51.198;6.824;2023-04-03T01:17:52;7.68;;;5.63;;
19889;SDS011;10107;51.198;6.824;2023-04-03T01:22:00;8.48;;;6.00;;
19889;SDS011;10107;51.198;6.824;2023-04-03T01:26:16;6.63;;;5.38;;
19889;SDS011;10107;51.198;6.824;2023-04-03T01:30:18;7.32;;;5.90;;
19889;SDS011;10107;51.198;6.824;2023-04-03T01:34:23;7.85;;;5.78;;
19889;SDS011;10107;51.198;6.824;2023-04-03T01:38:26;8.75;;;6.20;;
19889;SDS011;10107;51.198;6.824;2023-04-03T01:42:27;8.27;;;5.80;;
19889;SDS011;10107;51.198;6.824;2023-04-03T01:46:29;8.55;;;6.10;;
19889;SDS011;10107;51.198;6.824;2023-04-03T01:50:32;8.63;;;6.57;;
19889;SDS011;10107;51.198;6.824;2023-04-03T01:58:36;9.50;;;6.55;;
19889;SDS011;10107;51.198;6.824;2023-04-03T02:02:38;9.30;;;6.30;;
19889;SDS011;10107;51.198;6.824;2023-04-03T02:06:42;8.85;;;6.53;;
19889;SDS011;10107;51.198;6.824;2023-04-03T02:10:46;8.25;;;6.50;;
19889;SDS011;10107;51.198;6.824;2023-04-03T02:14:48;8.43;;;5.80;;
19889;SDS011;10107;51.198;6.824;2023-04-03T02:18:50;7.35;;;5.35;;
19889;SDS011;10107;51.198;6.824;2023-04-03T02:22:53;8.80;;;5.65;;
19889;SDS011;10107;51.198;6.824;2023-04-03T02:26:55;10.27;;;5.75;;
19889;SDS011;10107;51.198;6.824;2023-04-03T02:30:57;10.68;;;5.70;;
19889;SDS011;10107;51.198;6.824;2023-04-03T02:34:59;9.52;;;4.97;;
19889;SDS011;10107;51.198;6.824;2023-04-03T02:39:03;4.95;;;3.90;;
19889;SDS011;10107;51.198;6.824;2023-04-03T02:43:04;7.97;;;5.68;;
19889;SDS011;10107;51.198;6.824;2023-04-03T02:47:08;8.23;;;6.05;;
19889;SDS011;10107;51.198;6.824;2023-04-03T02:51:10;7.82;;;5.38;;
19889;SDS011;10107;51.198;6.824;2023-04-03T02:55:14;8.00;;;5.47;;
19889;SDS011;10107;51.198;6.824;2023-04-03T02:59:18;10.00;;;5.93;;
19889;SDS011;10107;51.198;6.824;2023-04-03T03:03:21;8.32;;;6.10;;
19889;SDS011;10107;51.198;6.824;2023-04-03T03:07:23;8.25;;;5.32;;
19889;SDS011;10107;51.198;6.824;2023-04-03T03:11:27;6.43;;;4.10;;
19889;SDS011;10107;51.198;6.824;2023-04-03T03:15:30;8.43;;;5.25;;
19889;SDS011;10107;51.198;6.824;2023-04-03T03:19:32;7.95;;;5.40;;
19889;SDS011;10107;51.198;6.824;2023-04-03T03:23:33;9.52;;;5.57;;
19889;SDS011;10107;51.198;6.824;2023-04-03T03:27:36;9.32;;;5.60;;
19889;SDS011;10107;51.198;6.824;2023-04-03T03:31:39;7.10;;;5.30;;
19889;SDS011;10107;51.198;6.824;2023-04-03T03:35:41;8.55;;;5.47;;
19889;SDS011;10107;51.198;6.824;2023-04-03T03:39:43;8.82;;;5.35;;
19889;SDS011;10107;51.198;6.824;2023-04-03T03:43:47;9.30;;;6.33;;
19889;SDS011;10107;51.198;6.824;2023-04-03T03:47:50;9.75;;;5.20;;
19889;SDS011;10107;51.198;6.824;2023-04-03T03:51:52;6.90;;;4.78;;
19889;SDS011;10107;51.198;6.824;2023-04-03T03:55:53;8.38;;;5.38;;
19889;SDS011;10107;51.198;6.824;2023-04-03T03:59:59;7.07;;;5.30;;
19889;SDS011;10107;51.198;6.824;2023-04-03T04:04:01;8.18;;;5.05;;
19889;SDS011;10107;51.198;6.824;2023-04-03T04:08:05;8.15;;;5.00;;
19889;SDS011;10107;51.198;6.824;2023-04-03T04:12:07;4.73;;;3.83;;
19889;SDS011;10107;51.198;6.824;2023-04-03T04:16:11;7.13;;;5.55;;
19889;SDS011;10107;51.198;6.824;2023-04-03T04:20:13;6.22;;;4.53;;
19889;SDS011;10107;51.198;6.824;2023-04-03T04:24:15;6.25;;;3.33;;
19889;SDS011;10107;51.198;6.824;2023-04-03T04:28:17;6.90;;;4.80;;
19889;SDS011;10107;51.198;6.824;2023-04-03T04:32:22;6.22;;;4.15;;
19889;SDS011;10107;51.198;6.824;2023-04-03T04:36:25;8.73;;;4.68;;
19889;SDS011;10107;51.198;6.824;2023-04-03T04:40:27;6.40;;;3.97;;
19889;SDS011;10107;51.198;6.824;2023-04-03T04:44:29;6.20;;;3.95;;
19889;SDS011;10107;51.198;6.824;2023-04-03T04:48:32;8.02;;;3.85;;
19889;SDS011;10107;51.198;6.824;2023-04-03T04:52:35;6.22;;;4.18;;
19889;SDS011;10107;51.198;6.824;2023-04-03T04:56:38;4.33;;;3.60;;
19889;SDS011;10107;51.198;6.824;2023-04-03T05:00:39;7.35;;;3.80;;
19889;SDS011;10107;51.198;6.824;2023-04-03T05:04:43;5.40;;;3.75;;
19889;SDS011;10107;51.198;6.824;2023-04-03T05:08:51;6.80;;;3.88;;
19889;SDS011;10107;51.198;6.824;2023-04-03T05:12:54;5.95;;;2.97;;
19889;SDS011;10107;51.198;6.824;2023-04-03T05:16:55;5.63;;;3.75;;
19889;SDS011;10107;51.198;6.824;2023-04-03T05:21:03;5.32;;;4.18;;
19889;SDS011;10107;51.198;6.824;2023-04-03T05:25:05;5.80;;;3.72;;
19889;SDS011;10107;51.198;6.824;2023-04-03T05:29:09;7.30;;;3.80;;
19889;SDS011;10107;51.198;6.824;2023-04-03T05:33:12;6.05;;;3.70;;
19889;SDS011;10107;51.198;6.824;2023-04-03T05:37:22;8.15;;;4.07;;
19889;SDS011;10107;51.198;6.824;2023-04-03T05:41:26;5.60;;;3.72;;
19889;SDS011;10107;51.198;6.824;2023-04-03T05:45:28;4.47;;;3.58;;
19889;SDS011;10107;51.198;6.824;2023-04-03T05:49:31;7.93;;;4.72;;
19889;SDS011;10107;51.198;6.824;2023-04-03T05:53:35;7.80;;;3.80;;
19889;SDS011;10107;51.198;6.824;2023-04-03T05:57:39;6.80;;;3.65;;
19889;SDS011;10107;51.198;6.824;2023-04-03T06:01:40;7.65;;;4.18;;
19889;SDS011;10107;51.198;6.824;2023-04-03T06:05:42;6.05;;;3.63;;
19889;SDS011;10107;51.198;6.824;2023-04-03T06:09:46;7.33;;;3.90;;
19889;SDS011;10107;51.198;6.824;2023-04-03T06:13:48;5.32;;;3.17;;
19889;SDS011;10107;51.198;6.824;2023-04-03T06:17:51;6.40;;;3.30;;
19889;SDS011;10107;51.198;6.824;2023-04-03T06:21:53;5.32;;;3.22;;
19889;SDS011;10107;51.198;6.824;2023-04-03T06:25:56;4.63;;;2.83;;
19889;SDS011;10107;51.198;6.824;2023-04-03T06:29:58;6.15;;;3.60;;
19889;SDS011;10107;51.198;6.824;2023-04-03T06:34:00;5.93;;;3.45;;
19889;SDS011;10107;51.198;6.824;2023-04-03T06:38:02;5.32;;;3.30;;
19889;SDS011;10107;51.198;6.824;2023-04-03T06:42:10;5.75;;;3.10;;
19889;SDS011;10107;51.198;6.824;2023-04-03T06:46:21;4.10;;;2.88;;
19889;SDS011;10107;51.198;6.824;2023-04-03T06:50:23;4.88;;;3.15;;
19889;SDS011;10107;51.198;6.824;2023-04-03T06:54:25;6.05;;;3.35;;
19889;SDS011;10107;51.198;6.824;2023-04-03T06:58:28;5.07;;;2.50;;
19889;SDS011;10107;51.198;6.824;2023-04-03T07:02:30;3.67;;;1.88;;
19889;SDS011;10107;51.198;6.824;2023-04-03T07:06:32;4.85;;;2.20;;
19889;SDS011;10107;51.198;6.824;2023-04-03T07:10:33;5.97;;;2.08;;
19889;SDS011;10107;51.198;6.824;2023-04-03T07:14:37;5.53;;;2.28;;
19889;SDS011;10107;51.198;6.824;2023-04-03T07:22:41;4.10;;;2.10;;
19889;SDS011;10107;51.198;6.824;2023-04-03T07:26:43;3.55;;;1.88;;
19889;SDS011;10107;51.198;6.824;2023-04-03T07:30:47;4.60;;;1.95;;
19889;SDS011;10107;51.198;6.824;2023-04-03T07:34:49;5.25;;;1.90;;
19889;SDS011;10107;51.198;6.824;2023-04-03T07:38:51;4.53;;;1.88;;
19889;SDS011;10107;51.198;6.824;2023-04-03T07:42:53;3.53;;;1.80;;
19889;SDS011;10107;51.198;6.824;2023-04-03T07:46:56;3.05;;;1.73;;
19889;SDS011;10107;51.198;6.824;2023-04-03T07:50:58;3.23;;;1.87;;
19889;SDS011;10107;51.198;6.824;2023-04-03T07:55:01;4.18;;;1.60;;
19889;SDS011;10107;51.198;6.824;2023-04-03T07:59:03;5.60;;;2.20;;
19889;SDS011;10107;51.198;6.824;2023-04-03T08:03:06;2.95;;;1.50;;
19889;SDS011;10107;51.198;6.824;2023-04-03T08:07:10;3.58;;;1.90;;
19889;SDS011;10107;51.198;6.824;2023-04-03T08:11:11;5.50;;;1.83;;
19889;SDS011;10107;51.198;6.824;2023-04-03T08:15:13;5.18;;;2.10;;
19889;SDS011;10107;51.198;6.824;2023-04-03T08:19:17;3.97;;;1.92;;
19889;SDS011;10107;51.198;6.824;2023-04-03T08:23:19;4.67;;;1.90;;
19889;SDS011;10107;51.198;6.824;2023-04-03T08:27:21;3.20;;;1.52;;
19889;SDS011;10107;51.198;6.824;2023-04-03T08:31:22;2.50;;;1.50;;
19889;SDS011;10107;51.198;6.824;2023-04-03T08:35:26;1.90;;;1.30;;
19889;SDS011;10107;51.198;6.824;2023-04-03T08:39:27;3.53;;;1.60;;
19889;SDS011;10107;51.198;6.824;2023-04-03T08:43:30;3.67;;;1.38;;
19889;SDS011;10107;51.198;6.824;2023-04-03T08:47:42;2.90;;;1.40;;
19889;SDS011;10107;51.198;6.824;2023-04-03T08:51:51;1.65;;;1.30;;
19889;SDS011;10107;51.198;6.824;2023-04-03T08:55:54;3.65;;;1.40;;
19889;SDS011;10107;51.198;6.824;2023-04-03T08:59:58;3.10;;;1.67;;
19889;SDS011;10107;51.198;6.824;2023-04-03T09:04:17;2.38;;;1.20;;
19889;SDS011;10107;51.198;6.824;2023-04-03T09:08:22;2.88;;;1.40;;
19889;SDS011;10107;51.198;6.824;2023-04-03T09:12:27;2.13;;;1.23;;
19889;SDS011;10107;51.198;6.824;2023-04-03T09:16:39;2.88;;;1.40;;
19889;SDS011;10107;51.198;6.824;2023-04-03T09:20:49;2.42;;;1.50;;
19889;SDS011;10107;51.198;6.824;2023-04-03T09:25:02;3.58;;;1.30;;
19889;SDS011;10107;51.198;6.824;2023-04-03T09:29:14;2.47;;;1.15;;
19889;SDS011;10107;51.198;6.824;2023-04-03T09:33:19;2.83;;;1.60;;
19889;SDS011;10107;51.198;6.824;2023-04-03T09:41:40;1.88;;;1.08;;
19889;SDS011;10107;51.198;6.824;2023-04-03T09:45:42;2.00;;;1.40;;
19889;SDS011;10107;51.198;6.824;2023-04-03T09:49:45;3.22;;;1.40;;
19889;SDS011;10107;51.198;6.824;2023-04-03T09:53:47;3.92;;;1.70;;
19889;SDS011;10107;51.198;6.824;2023-04-03T09:57:50;1.60;;;1.25;;
19889;SDS011;10107;51.198;6.824;2023-04-03T10:01:58;5.20;;;1.17;;
19889;SDS011;10107;51.198;6.824;2023-04-03T10:06:01;4.35;;;1.70;;
19889;SDS011;10107;51.198;6.824;2023-04-03T10:10:16;2.10;;;1.30;;
19889;SDS011;10107;51.198;6.824;2023-04-03T10:14:21;3.08;;;1.00;;
19889;SDS011;10107;51.198;6.824;2023-04-03T10:18:27;4.00;;;1.53;;
19889;SDS011;10107;51.198;6.824;2023-04-03T10:22:36;3.45;;;1.80;;
19889;SDS011;10107;51.198;6.824;2023-04-03T10:26:45;5.93;;;1.45;;
19889;SDS011;10107;51.198;6.824;2023-04-03T10:30:56;2.03;;;1.20;;
19889;SDS011;10107;51.198;6.824;2023-04-03T10:35:02;2.15;;;1.20;;
19889;SDS011;10107;51.198;6.824;2023-04-03T10:39:17;3.53;;;1.35;;
19889;SDS011;10107;51.198;6.824;2023-04-03T10:43:29;1.73;;;1.10;;
19889;SDS011;10107;51.198;6.824;2023-04-03T10:47:40;2.72;;;1.10;;
19889;SDS011;10107;51.198;6.824;2023-04-03T10:51:51;2.05;;;1.00;;
19889;SDS011;10107;51.198;6.824;2023-04-03T10:56:07;5.20;;;1.20;;
19889;SDS011;10107;51.198;6.824;2023-04-03T11:00:17;1.70;;;0.90;;
19889;SDS011;10107;51.198;6.824;2023-04-03T11:04:25;2.63;;;1.13;;
19889;SDS011;10107;51.198;6.824;2023-04-03T11:08:33;1.92;;;1.13;;
19889;SDS011;10107;51.198;6.824;2023-04-03T11:12:41;1.25;;;0.88;;
19889;SDS011;10107;51.198;6.824;2023-04-03T11:16:46;2.25;;;1.30;;
19889;SDS011;10107;51.198;6.824;2023-04-03T11:20:53;1.88;;;1.10;;
19889;SDS011;10107;51.198;6.824;2023-04-03T11:25:03;1.52;;;1.00;;
19889;SDS011;10107;51.198;6.824;2023-04-03T11:29:06;1.00;;;0.77;;
19889;SDS011;10107;51.198;6.824;2023-04-03T11:33:16;3.15;;;1.73;;
19889;SDS011;10107;51.198;6.824;2023-04-03T11:37:29;2.97;;;0.98;;
19889;SDS011;10107;51.198;6.824;2023-04-03T11:41:35;1.23;;;0.90;;
19889;SDS011;10107;51.198;6.824;2023-04-03T11:45:40;1.92;;;1.00;;
19889;SDS011;10107;51.198;6.824;2023-04-03T11:49:55;1.75;;;1.10;;
19889;SDS011;10107;51.198;6.824;2023-04-03T11:54:11;1.23;;;0.90;;
19889;SDS011;10107;51.198;6.824;2023-04-03T11:58:52;2.70;;;0.80;;
19889;SDS011;10107;51.198;6.824;2023-04-03T12:08:16;1.55;;;0.85;;
19889;SDS011;10107;51.198;6.824;2023-04-03T12:12:27;1.77;;;0.90;;
19889;SDS011;10107;51.198;6.824;2023-04-03T12:16:32;2.08;;;0.90;;
19889;SDS011;10107;51.198;6.824;2023-04-03T12:24:55;1.48;;;1.10;;
19889;SDS011;10107;51.198;6.824;2023-04-03T12:28:58;1.25;;;0.73;;
19889;SDS011;10107;51.198;6.824;2023-04-03T12:33:20;1.88;;;0.73;;
19889;SDS011;10107;51.198;6.824;2023-04-03T12:37:38;2.17;;;1.08;;
19889;SDS011;10107;51.198;6.824;2023-04-03T12:41:46;3.13;;;1.20;;
19889;SDS011;10107;51.198;6.824;2023-04-03T12:46:02;2.17;;;0.95;;
19889;SDS011;10107;51.198;6.824;2023-04-03T12:50:16;2.17;;;1.00;;
19889;SDS011;10107;51.198;6.824;2023-04-03T12:54:26;3.78;;;1.27;;
19889;SDS011;10107;51.198;6.824;2023-04-03T12:58:32;2.47;;;1.33;;
19889;SDS011;10107;51.198;6.824;2023-04-03T13:02:36;3.03;;;1.10;;
19889;SDS011;10107;51.198;6.824;2023-04-03T13:06:38;1.93;;;1.20;;
19889;SDS011;10107;51.198;6.824;2023-04-03T13:10:43;4.20;;;2.20;;
19889;SDS011;10107;51.198;6.824;2023-04-03T13:14:53;2.85;;;1.10;;
19889;SDS011;10107;51.198;6.824;2023-04-03T13:18:59;2.00;;;1.10;;
19889;SDS011;10107;51.198;6.824;2023-04-03T13:23:01;1.37;;;1.03;;
19889;SDS011;10107;51.198;6.824;2023-04-03T13:27:05;3.20;;;1.70;;
19889;SDS011;10107;51.198;6.824;2023-04-03T13:31:08;3.55;;;1.35;;
19889;SDS011;10107;51.198;6.824;2023-04-03T13:39:42;1.40;;;0.77;;
19889;SDS011;10107;51.198;6.824;2023-04-03T13:43:44;2.65;;;1.10;;
19889;SDS011;10107;51.198;6.824;2023-04-03T13:47:46;2.55;;;1.30;;
19889;SDS011;10107;51.198;6.824;2023-04-03T13:55:55;3.00;;;1.30;;
19889;SDS011;10107;51.198;6.824;2023-04-03T13:59:59;2.78;;;1.70;;
19889;SDS011;10107;51.198;6.824;2023-04-03T14:04:01;2.33;;;1.17;;
19889;SDS011;10107;51.198;6.824;2023-04-03T14:08:14;4.28;;;1.45;;
19889;SDS011;10107;51.198;6.824;2023-04-03T14:12:17;2.78;;;1.40;;
19889;SDS011;10107;51.198;6.824;2023-04-03T14:16:23;2.28;;;1.20;;
19889;SDS011;10107;51.198;6.824;2023-04-03T14:20:29;1.48;;;1.20;;
19889;SDS011;10107;51.198;6.824;2023-04-03T14:24:32;2.03;;;1.30;;
19889;SDS011;10107;51.198;6.824;2023-04-03T14:28:34;2.42;;;1.20;;
19889;SDS011;10107;51.198;6.824;2023-04-03T14:32:36;2.03;;;1.30;;
19889;SDS011;10107;51.198;6.824;2023-04-03T14:36:38;2.35;;;1.17;;
19889;SDS011;10107;51.198;6.824;2023-04-03T14:40:43;2.22;;;1.42;;
19889;SDS011;10107;51.198;6.824;2023-04-03T14:44:44;4.93;;;1.30;;
19889;SDS011;10107;51.198;6.824;2023-04-03T14:48:47;2.70;;;1.50;;
19889;SDS011;10107;51.198;6.824;2023-04-03T14:52:49;4.47;;;1.80;;
19889;SDS011;10107;51.198;6.824;2023-04-03T14:56:55;5.03;;;1.30;;
19889;SDS011;10107;51.198;6.824;2023-04-03T15:00:58;4.65;;;1.30;;
19889;SDS011;10107;51.198;6.824;2023-04-03T15:05:00;2.20;;;1.27;;
19889;SDS011;10107;51.198;6.824;2023-04-03T15:09:04;3.35;;;1.48;;
19889;SDS011;10107;51.198;6.824;2023-04-03T15:13:08;1.88;;;1.23;;
19889;SDS011;10107;51.198;6.824;2023-04-03T15:17:13;2.67;;;1.30;;
19889;SDS011;10107;51.198;6.824;2023-04-03T15:21:17;4.43;;;1.30;;
19889;SDS011;10107;51.198;6.824;2023-04-03T15:25:19;3.10;;;1.30;;
19889;SDS011;10107;51.198;6.824;2023-04-03T15:29:22;3.60;;;1.70;;
19889;SDS011;10107;51.198;6.824;2023-04-03T15:33:24;2.57;;;1.40;;
19889;SDS011;10107;51.198;6.824;2023-04-03T15:37:26;3.90;;;1.63;;
19889;SDS011;10107;51.198;6.824;2023-04-03T15:41:28;2.47;;;1.27;;
19889;SDS011;10107;51.198;6.824;2023-04-03T15:45:31;1.88;;;1.48;;
19889;SDS011;10107;51.198;6.824;2023-04-03T15:49:34;4.22;;;1.13;;
19889;SDS011;10107;51.198;6.824;2023-04-03T15:53:36;2.65;;;1.30;;
19889;SDS011;10107;51.198;6.824;2023-04-03T15:57:38;1.90;;;1.27;;
19889;SDS011;10107;51.198;6.824;2023-04-03T16:01:41;2.83;;;1.30;;
19889;SDS011;10107;51.198;6.824;2023-04-03T16:05:43;2.95;;;1.50;;
19889;SDS011;10107;51.198;6.824;2023-04-03T16:09:45;2.65;;;1.30;;
19889;SDS011;10107;51.198;6.824;2023-04-03T16:13:47;2.80;;;1.10;;
19889;SDS011;10107;51.198;6.824;2023-04-03T16:17:50;2.17;;;1.13;;
19889;SDS011;10107;51.198;6.824;2023-04-03T16:21:53;3.15;;;1.30;;
19889;SDS011;10107;51.198;6.824;2023-04-03T16:25:55;3.03;;;1.20;;
19889;SDS011;10107;51.198;6.824;2023-04-03T16:29:57;4.03;;;1.90;;
19889;SDS011;10107;51.198;6.824;2023-04-03T16:34:01;5.80;;;1.48;;
19889;SDS011;10107;51.198;6.824;2023-04-03T16:38:02;2.78;;;1.50;;
19889;SDS011;10107;51.198;6.824;2023-04-03T16:42:04;2.65;;;1.20;;
19889;SDS011;10107;51.198;6.824;2023-04-03T16:46:06;2.28;;;1.17;;
19889;SDS011;10107;51.198;6.824;2023-04-03T16:50:09;2.38;;;1.30;;
19889;SDS011;10107;51.198;6.824;2023-04-03T16:54:11;3.15;;;1.38;;
19889;SDS011;10107;51.198;6.824;2023-04-03T16:58:13;2.38;;;1.52;;
19889;SDS011;10107;51.198;6.824;2023-04-03T17:02:15;3.80;;;1.42;;
19889;SDS011;10107;51.198;6.824;2023-04-03T17:06:19;4.55;;;1.95;;
19889;SDS011;10107;51.198;6.824;2023-04-03T17:10:23;4.85;;;1.60;;
19889;SDS011;10107;51.198;6.824;2023-04-03T17:14:25;3.17;;;1.60;;
19889;SDS011;10107;51.198;6.824;2023-04-03T17:18:27;5.53;;;2.10;;
19889;SDS011;10107;51.198;6.824;2023-04-03T17:22:30;3.90;;;1.60;;
19889;SDS011;10107;51.198;6.824;2023-04-03T17:26:32;3.53;;;1.60;;
19889;SDS011;10107;51.198;6.824;2023-04-03T17:30:34;5.28;;;2.35;;
19889;SDS011;10107;51.198;6.824;2023-04-03T17:34:35;3.35;;;1.70;;
19889;SDS011;10107;51.198;6.824;2023-04-03T17:38:38;2.55;;;1.55;;
19889;SDS011;10107;51.198;6.824;2023-04-03T17:42:40;3.55;;;1.52;;
19889;SDS011;10107;51.198;6.824;2023-04-03T17:46:42;3.83;;;1.75;;
19889;SDS011;10107;51.198;6.824;2023-04-03T17:50:44;2.92;;;1.65;;
19889;SDS011;10107;51.198;6.824;2023-04-03T17:54:47;3.58;;;1.50;;
19889;SDS011;10107;51.198;6.824;2023-04-03T17:58:49;3.33;;;1.50;;
19889;SDS011;10107;51.198;6.824;2023-04-03T18:02:51;4.00;;;1.75;;
19889;SDS011;10107;51.198;6.824;2023-04-03T18:06:53;3.83;;;1.83;;
19889;SDS011;10107;51.198;6.824;2023-04-03T18:10:57;2.35;;;1.60;;
19889;SDS011;10107;51.198;6.824;2023-04-03T18:14:58;3.70;;;1.70;;
19889;SDS011;10107;51.198;6.824;2023-04-03T18:19:01;3.67;;;1.75;;
19889;SDS011;10107;51.198;6.824;2023-04-03T18:23:03;4.47;;;1.92;;
19889;SDS011;10107;51.198;6.824;2023-04-03T18:27:08;3.00;;;1.90;;
19889;SDS011;10107;51.198;6.824;2023-04-03T18:31:13;3.95;;;1.77;;
19889;SDS011;10107;51.198;6.824;2023-04-03T18:35:16;2.25;;;1.73;;
19889;SDS011;10107;51.198;6.824;2023-04-03T18:39:18;5.20;;;1.75;;
19889;SDS011;10107;51.198;6.824;2023-04-03T18:43:21;2.28;;;1.55;;
19889;SDS011;10107;51.198;6.824;2023-04-03T18:47:23;3.03;;;1.80;;
19889;SDS011;10107;51.198;6.824;2023-04-03T18:51:27;3.65;;;1.92;;
19889;SDS011;10107;51.198;6.824;2023-04-03T18:55:29;3.05;;;1.75;;
19889;SDS011;10107;51.198;6.824;2023-04-03T18:59:32;3.53;;;1.70;;
19889;SDS011;10107;51.198;6.824;2023-04-03T19:03:34;2.47;;;1.67;;
19889;SDS011;10107;51.198;6.824;2023-04-03T19:07:37;3.63;;;1.53;;
19889;SDS011;10107;51.198;6.824;2023-04-03T19:11:38;4.28;;;1.65;;
19889;SDS011;10107;51.198;6.824;2023-04-03T19:15:42;3.42;;;1.58;;
19889;SDS011;10107;51.198;6.824;2023-04-03T19:19:44;4.00;;;1.85;;
19889;SDS011;10107;51.198;6.824;2023-04-03T19:23:45;3.17;;;1.80;;
19889;SDS011;10107;51.198;6.824;2023-04-03T19:27:47;5.05;;;2.05;;
19889;SDS011;10107;51.198;6.824;2023-04-03T19:31:50;2.20;;;1.52;;
19889;SDS011;10107;51.198;6.824;2023-04-03T19:35:52;4.07;;;2.42;;
19889;SDS011;10107;51.198;6.824;2023-04-03T19:39:54;4.03;;;1.85;;
19889;SDS011;10107;51.198;6.824;2023-04-03T19:43:55;2.67;;;1.80;;
19889;SDS011;10107;51.198;6.824;2023-04-03T19:47:59;4.50;;;1.98;;
19889;SDS011;10107;51.198;6.824;2023-04-03T19:52:01;6.55;;;1.60;;
19889;SDS011;10107;51.198;6.824;2023-04-03T19:56:03;4.90;;;1.77;;
19889;SDS011;10107;51.198;6.824;2023-04-03T20:00:06;4.43;;;1.90;;
19889;SDS011;10107;51.198;6.824;2023-04-03T20:04:12;2.92;;;1.80;;
19889;SDS011;10107;51.198;6.824;2023-04-03T20:08:14;3.88;;;2.20;;
19889;SDS011;10107;51.198;6.824;2023-04-03T20:12:16;5.78;;;2.00;;
19889;SDS011;10107;51.198;6.824;2023-04-03T20:16:18;4.07;;;2.30;;
19889;SDS011;10107;51.198;6.824;2023-04-03T20:20:22;5.93;;;2.63;;
19889;SDS011;10107;51.198;6.824;2023-04-03T20:24:24;3.37;;;1.70;;
19889;SDS011;10107;51.198;6.824;2023-04-03T20:28:27;4.43;;;2.33;;
19889;SDS011;10107;51.198;6.824;2023-04-03T20:32:29;5.38;;;2.20;;
19889;SDS011;10107;51.198;6.824;2023-04-03T20:36:32;3.50;;;2.10;;
19889;SDS011;10107;51.198;6.824;2023-04-03T20:40:35;4.30;;;2.05;;
19889;SDS011;10107;51.198;6.824;2023-04-03T20:44:36;4.38;;;2.15;;
19889;SDS011;10107;51.198;6.824;2023-04-03T20:48:38;3.60;;;2.10;;
19889;SDS011;10107;51.198;6.824;2023-04-03T20:52:42;5.50;;;2.30;;
19889;SDS011;10107;51.198;6.824;2023-04-03T20:56:44;3.50;;;2.05;;
19889;SDS011;10107;51.198;6.824;2023-04-03T21:00:48;3.80;;;2.35;;
19889;SDS011;10107;51.198;6.824;2023-04-03T21:04:51;2.45;;;1.83;;
19889;SDS011;10107;51.198;6.824;2023-04-03T21:22:29;4.22;;;2.13;;
19889;SDS011;10107;51.198;6.824;2023-04-03T21:26:31;3.10;;;2.10;;
19889;SDS011;10107;51.198;6.824;2023-04-03T21:30:33;5.13;;;2.53;;
19889;SDS011;10107;51.198;6.824;2023-04-03T21:34:36;3.13;;;2.10;;
19889;SDS011;10107;51.198;6.824;2023-04-03T21:38:38;4.20;;;2.30;;
19889;SDS011;10107;51.198;6.824;2023-04-03T21:42:39;2.75;;;1.90;;
19889;SDS011;10107;51.198;6.824;2023-04-03T21:46:41;5.50;;;2.30;;
19889;SDS011;10107;51.198;6.824;2023-04-03T21:50:44;3.10;;;2.35;;
19889;SDS011;10107;51.198;6.824;2023-04-03T21:54:52;3.22;;;2.15;;
19889;SDS011;10107;51.198;6.824;2023-04-03T21:58:54;3.65;;;2.78;;
19889;SDS011;10107;51.198;6.824;2023-04-03T22:02:55;5.13;;;2.95;;
19889;SDS011;10107;51.198;6.824;2023-04-03T22:06:58;5.28;;;2.97;;
19889;SDS011;10107;51.198;6.824;2023-04-03T22:11:00;4.00;;;2.28;;
19889;SDS011;10107;51.198;6.824;2023-04-03T22:15:03;3.53;;;2.38;;
19889;SDS011;10107;51.198;6.824;2023-04-03T22:19:06;6.18;;;2.58;;
19889;SDS011;10107;51.198;6.824;2023-04-03T22:23:09;4.90;;;2.40;;
19889;SDS011;10107;51.198;6.824;2023-04-03T22:27:10;3.60;;;2.28;;
19889;SDS011;10107;51.198;6.824;2023-04-03T22:31:13;5.00;;;2.22;;
19889;SDS011;10107;51.198;6.824;2023-04-03T22:35:15;3.00;;;2.17;;
19889;SDS011;10107;51.198;6.824;2023-04-03T22:39:18;4.65;;;2.38;;
19889;SDS011;10107;51.198;6.824;2023-04-03T22:43:21;3.28;;;2.22;;
19889;SDS011;10107;51.198;6.824;2023-04-03T22:47:22;5.30;;;2.55;;
19889;SDS011;10107;51.198;6.824;2023-04-03T22:51:24;3.95;;;2.35;;
19889;SDS011;10107;51.198;6.824;2023-04-03T22:55:27;3.50;;;2.35;;
19889;SDS011;10107;51.198;6.824;2023-04-03T22:59:29;2.45;;;1.67;;
19889;SDS011;10107;51.198;6.824;2023-04-03T23:03:31;5.78;;;2.80;;
19889;SDS011;10107;51.198;6.824;2023-04-03T23:07:33;3.55;;;2.60;;
19889;SDS011;10107;51.198;6.824;2023-04-03T23:11:36;4.82;;;2.55;;
19889;SDS011;10107;51.198;6.824;2023-04-03T23:15:37;4.22;;;2.42;;
19889;SDS011;10107;51.198;6.824;2023-04-03T23:19:39;3.33;;;2.40;;
19889;SDS011;10107;51.198;6.824;2023-04-03T23:23:41;3.13;;;2.33;;
19889;SDS011;10107;51.198;6.824;2023-04-03T23:27:49;5.10;;;2.83;;
19889;SDS011;10107;51.198;6.824;2023-04-03T23:31:51;5.40;;;3.05;;
19889;SDS011;10107;51.198;6.824;2023-04-03T23:35:53;5.72;;;2.72;;
19889;SDS011;10107;51.198;6.824;2023-04-03T23:39:55;6.35;;;3.03;;
19889;SDS011;10107;51.198;6.824;2023-04-03T23:43:58;5.35;;;2.78;;
19889;SDS011;10107;51.198;6.824;2023-04-03T23:48:00;3.75;;;2.63;;
19889;SDS011;10107;51.198;6.824;2023-04-03T23:52:01;4.63;;;2.95;;
19889;SDS011;10107;51.198;6.824;2023-04-03T23:56:03;5.55;;;3.10;;
